KPZQ METAR Reports


Rogers City, Presque Isle County Airport, MI, United States (KPZQ) 45-24-25N 083-48-46W
Dec 10, 2019 - 11:56 AM EST / 2019.12.10 1656 UTC
Wind: from the NW (320 degrees) at 8 MPH (7 KT):0
Visibility: 10 mile(s):0
Sky conditions: overcast
Temperature: 16.9 F (-8.4 C)
Windchill: 6 F (-14 C):1
Dew Point: 9.3 F (-12.6 C)
Relative Humidity: 71%
Pressure (altimeter): 29.99 in. Hg (1015 hPa)
ob: KPZQ 101656Z AUTO 32007KT 10SM OVC020 M08/M13 A2999 RMK AO2 T10841126
cycle: 17

 

Rogers City METAR Meteogram

Weather Chart

Nearby METAR Reports

KPZQ - Rogers City, Michigan, USA
Distance from station: SSW 1mi, 2km
Updated: Tue, 10-Dec-2019 11:56am EST
Overcast
Overcast
 Wind from NW
Wind: NW 8 mph , 13 km/h
Temperature: 18°F , -8°C
Wind Chill: 8°F , -13°C
Dew Point: 9°F , -13°C
Humidity: 68%
Barometer: 29.99 inHg , 1015.6 hPa
Clouds: Overcast
Visibility: 10 miles , 16 km
Cloud details: Overcast 2000 ft
2019/12/10 16:56 KPZQ 101656Z AUTO 32007KT 10SM OVC020 M08/M13 A2999 RMK AO2 T10841126
KAPN - Alpena, Michigan, USA
Distance from station: SSE 27mi, 43km
Updated: Tue, 10-Dec-2019 11:54am EST
Partly cloudy
Partly cloudy
 Wind from NW
Wind: NW 9 mph , 15 km/h, Gust: 21 mph , 33 km/h
Temperature: 18°F , -8°C
Wind Chill: 7°F , -14°C
Dew Point: 7°F , -14°C
Humidity: 62%
Barometer: 29.98 inHg , 1015.2 hPa
Clouds: Partly cloudy
Visibility: 10 miles , 16 km
Cloud details: Few Clouds 3000 ft
Partly cloudy 4000 ft
2019/12/10 16:54 KAPN 101654Z 32008G18KT 10SM FEW030 SCT040 M08/M14 A2998 RMK AO2 SLP163 T10781144
 
KSLH - Cheboygan, Michigan, USA
Distance from station: WNW 38mi, 61km
Updated: Tue, 10-Dec-2019 11:55am EST
Light snow, Overcast
Light snow, Overcast
 Wind from NNE
Wind: NNE 6 mph , 9 km/h
Temperature: 16°F , -9°C
Wind Chill: 7°F , -14°C
Dew Point: 10°F , -12°C
Humidity: 79%
Barometer: 29.97 inHg , 1014.9 hPa
Summary: Light Snow
Clouds: Overcast
Visibility: 2 miles , 3 km
Cloud details: Partly cloudy 700 ft
Overcast 1200 ft
2019/12/10 16:55 KSLH 101655Z AUTO 02005KT 2SM -SN SCT007 OVC012 M09/M12 A2997 RMK AO2 T10921116
KDRM - Drummond Is, Michigan, USA
Distance from station: N 40mi, 65km
Updated: Tue, 10-Dec-2019 11:55am EST
Clear
Clear
 Wind from N
Wind: N 3 mph , 6 km/h
Temperature: 12°F , -11°C
Dew Point: 7°F , -14°C
Humidity: 79%
Barometer: 29.97 inHg , 1014.9 hPa
Clouds: Clear
Visibility: 10 miles , 16 km
2019/12/10 16:55 KDRM 101655Z AUTO 36003KT 10SM CLR M11/M14 A2997 RMK AO2 T11131145
 
KPLN - Pellston, Michigan, USA
Distance from station: WNW 49mi, 79km
Updated: Tue, 10-Dec-2019 11:54am EST
Overcast
Overcast
 Wind from NNW
Wind: NNW 8 mph , 13 km/h
Temperature: 18°F , -8°C
Wind Chill: 8°F , -13°C
Dew Point: 9°F , -13°C
Humidity: 68%
Barometer: 29.97 inHg , 1014.9 hPa
Clouds: Overcast
Visibility: 10 miles , 16 km
Cloud details: Few Clouds 2800 ft
Overcast 3800 ft
2019/12/10 16:54 KPLN 101654Z AUTO 33007KT 10SM FEW028 OVC038 M08/M13 A2997 RMK AO2 SLP163 T10781128
KMCD - Mackinac Island, Michigan, USA
Distance from station: NW 50mi, 80km
Updated: Tue, 10-Dec-2019 11:55am EST
Light snow, Partly cloudy
Light snow, Partly cloudy
 Wind from calm
Wind: Calm
Temperature: 14°F , -10°C
Dew Point: 9°F , -13°C
Humidity: 79%
Barometer: 29.97 inHg , 1014.9 hPa
Summary: Light Snow
Clouds: Partly cloudy
Visibility: 7 miles , 11 km
Cloud details: Partly cloudy 1100 ft
Partly cloudy 4200 ft
2019/12/10 16:55 KMCD 101655Z AUTO 00000KT 7SM -SN SCT011 SCT042 M10/M13 A2997 RMK AO2 T10961126